Time;durP1;ratioP1;P1;durP2;ratioP2;P2;SDS_P1;SDS_P2;PMS_P1;PMS_P2;Temp;Humidity;BMP_temperature;BMP_pressure;BME280_temperature;BME280_humidity;BME280_pressure;Samples;Min_cycle;Max_cycle;Signal;HPM_P1;HPM_P2
2023/08/15 00:01:36;;;;;;;9.38;4.20;;;;;;;-148.88;100.00;-17125.47;4993217;28;20030;-73
2023/08/15 00:04:02;;;;;;;6.63;4.15;;;;;;;-148.88;100.00;-17125.47;4993185;28;20038;-73
2023/08/15 00:06:28;;;;;;;5.35;3.78;;;;;;;-148.88;100.00;-17125.47;4993133;28;20025;-72
2023/08/15 00:08:54;;;;;;;7.75;3.90;;;;;;;-148.88;100.00;-17125.47;4993016;28;20397;-72
2023/08/15 00:11:23;;;;;;;8.45;4.20;;;;;;;-148.88;100.00;-17125.47;4992928;28;20026;-73
2023/08/15 00:13:48;;;;;;;12.95;4.03;;;;;;;-148.88;100.00;-17125.47;4993018;28;20081;-73
2023/08/15 00:16:14;;;;;;;7.60;4.28;;;;;;;-148.88;100.00;-17125.47;4991730;28;20033;-72
2023/08/15 00:18:40;;;;;;;7.07;4.28;;;;;;;-148.88;100.00;-17125.47;4992896;28;20058;-73
2023/08/15 00:21:05;;;;;;;6.25;4.18;;;;;;;-148.88;100.00;-17125.47;4992994;28;20027;-72
2023/08/15 00:23:31;;;;;;;6.65;4.28;;;;;;;-148.88;100.00;-17125.47;5052153;23;20034;-88
2023/08/15 00:25:56;;;;;;;7.47;3.95;;;;;;;-148.88;100.00;-17125.47;4994140;28;20089;-88
2023/08/15 00:28:22;;;;;;;7.80;4.55;;;;;;;-148.88;100.00;-17125.47;4992867;28;20018;-88
2023/08/15 00:30:47;;;;;;;9.18;4.18;;;;;;;-148.88;100.00;-17125.47;5009094;28;20026;-88
2023/08/15 00:33:13;;;;;;;6.95;4.38;;;;;;;-148.88;100.00;-17125.47;4992448;28;20081;-88
2023/08/15 00:35:38;;;;;;;6.97;4.22;;;;;;;-148.88;100.00;-17125.47;4992600;28;20023;-88
2023/08/15 00:38:03;;;;;;;6.20;4.22;;;;;;;-148.88;100.00;-17125.47;5007038;23;20086;-77
2023/08/15 00:40:29;;;;;;;6.55;4.38;;;;;;;-148.88;100.00;-17125.47;5032669;28;20033;-77
2023/08/15 00:42:54;;;;;;;6.85;4.35;;;;;;;-148.88;100.00;-17125.47;5032741;28;20076;-77
2023/08/15 00:45:19;;;;;;;6.38;4.05;;;;;;;-148.88;100.00;-17125.47;5032934;28;20053;-77
2023/08/15 00:47:45;;;;;;;7.88;4.20;;;;;;;-148.88;100.00;-17125.47;5032524;28;20099;-77
2023/08/15 00:50:10;;;;;;;5.80;3.85;;;;;;;-148.88;100.00;-17125.47;5032739;28;20112;-77
2023/08/15 00:52:36;;;;;;;6.50;4.10;;;;;;;-148.88;100.00;-17125.47;5034587;28;20026;-77
2023/08/15 00:55:02;;;;;;;6.32;3.78;;;;;;;-148.88;100.00;-17125.47;5036653;28;20021;-77
2023/08/15 00:57:29;;;;;;;5.75;3.83;;;;;;;-148.88;100.00;-17125.47;5036321;28;20025;-77
2023/08/15 00:59:54;;;;;;;5.32;3.53;;;;;;;-148.88;100.00;-17125.47;5035025;28;20018;-77
2023/08/15 01:02:20;;;;;;;10.18;4.25;;;;;;;-148.88;100.00;-17125.47;5036626;28;20071;-77
2023/08/15 01:04:45;;;;;;;7.45;4.38;;;;;;;-148.88;100.00;-17125.47;5034953;28;20507;-77
2023/08/15 01:07:10;;;;;;;5.53;4.03;;;;;;;-148.88;100.00;-17125.47;5036293;28;20024;-77
2023/08/15 01:09:37;;;;;;;7.38;4.03;;;;;;;-148.88;100.00;-17125.47;5036055;28;20033;-77
2023/08/15 01:12:19;;;;;;;6.32;4.22;;;;;;;-148.88;100.00;-17125.47;5036119;28;20029;-77
2023/08/15 01:14:55;;;;;;;4.55;3.38;;;;;;;-148.88;100.00;-17125.47;5034765;28;20391;-77
2023/08/15 01:17:30;;;;;;;5.50;3.53;;;;;;;-148.88;100.00;-17125.47;5036039;28;20446;-77
2023/08/15 01:20:02;;;;;;;6.47;4.07;;;;;;;-148.88;100.00;-17125.47;5035952;28;20021;-77
2023/08/15 01:22:28;;;;;;;4.65;3.65;;;;;;;-148.88;100.00;-17125.47;5036415;28;20071;-76
2023/08/15 01:24:54;;;;;;;5.72;3.80;;;;;;;-148.88;100.00;-17125.47;5035894;28;20021;-77
2023/08/15 01:27:19;;;;;;;6.15;4.05;;;;;;;-148.88;100.00;-17125.47;5035786;28;20032;-77
2023/08/15 01:29:45;;;;;;;7.82;3.97;;;;;;;-148.88;100.00;-17125.47;5034385;28;20032;-77
2023/08/15 01:32:25;;;;;;;5.78;4.00;;;;;;;-148.88;100.00;-17125.47;5035975;28;20040;-77
2023/08/15 01:34:59;;;;;;;7.15;4.30;;;;;;;-148.88;100.00;-17125.47;5035840;28;20034;-77
2023/08/15 01:37:30;;;;;;;5.93;3.47;;;;;;;-148.88;100.00;-17125.47;5036003;28;20468;-77
2023/08/15 01:39:57;;;;;;;6.50;4.18;;;;;;;-148.88;100.00;-17125.47;5035525;28;20159;-77
2023/08/15 01:42:24;;;;;;;5.20;3.90;;;;;;;-148.88;100.00;-17125.47;5034179;28;20412;-77
2023/08/15 01:44:52;;;;;;;5.97;3.90;;;;;;;-148.88;100.00;-17125.47;5034425;28;20049;-77
2023/08/15 01:47:19;;;;;;;10.63;4.20;;;;;;;-148.88;100.00;-17125.47;5034259;28;20029;-77
2023/08/15 01:49:45;;;;;;;6.88;3.75;;;;;;;-148.88;100.00;-17125.47;5035774;28;20036;-77
2023/08/15 01:52:10;;;;;;;5.85;3.95;;;;;;;-148.88;100.00;-17125.47;5035445;28;20096;-77
2023/08/15 01:54:36;;;;;;;6.38;4.18;;;;;;;-148.88;100.00;-17125.47;5035284;28;20028;-77
2023/08/15 01:57:01;;;;;;;6.07;4.00;;;;;;;-148.88;100.00;-17125.47;5033906;28;20044;-77
2023/08/15 01:59:26;;;;;;;6.93;4.10;;;;;;;-148.88;100.00;-17125.47;5033970;28;20027;-76
2023/08/15 02:01:52;;;;;;;6.45;4.13;;;;;;;-148.88;100.00;-17125.47;5035463;28;20029;-77
2023/08/15 02:04:17;;;;;;;7.75;4.15;;;;;;;-148.88;100.00;-17125.47;5035059;28;20109;-77
2023/08/15 02:06:42;;;;;;;6.07;4.57;;;;;;;-148.88;100.00;-17125.47;5035036;28;20112;-77
2023/08/15 02:09:08;;;;;;;6.53;4.32;;;;;;;-148.88;100.00;-17125.47;5033771;28;20112;-76
2023/08/15 02:11:33;;;;;;;9.20;4.18;;;;;;;-148.88;100.00;-17125.47;5033705;28;20108;-77
2023/08/15 02:13:58;;;;;;;6.95;4.07;;;;;;;-148.88;100.00;-17125.47;5035190;28;20091;-77
2023/08/15 02:16:24;;;;;;;8.52;4.53;;;;;;;-148.88;100.00;-17125.47;5035113;28;20099;-77
2023/08/15 02:18:49;;;;;;;9.95;4.53;;;;;;;-148.88;100.00;-17125.47;5033514;28;20036;-77
2023/08/15 02:21:15;;;;;;;6.60;4.60;;;;;;;-148.88;100.00;-17125.47;5034845;28;20059;-77
2023/08/15 02:23:40;;;;;;;5.50;4.28;;;;;;;-148.88;100.00;-17125.47;5034829;28;20022;-77
2023/08/15 02:26:05;;;;;;;7.57;4.43;;;;;;;-148.88;100.00;-17125.47;5034777;28;20104;-76
2023/08/15 02:28:31;;;;;;;5.93;4.28;;;;;;;-148.88;100.00;-17125.47;5034658;28;20017;-76
2023/08/15 02:30:56;;;;;;;7.10;4.00;;;;;;;-148.88;100.00;-17125.47;5035128;28;20159;-76
2023/08/15 02:33:22;;;;;;;8.70;4.43;;;;;;;-148.88;100.00;-17125.47;5033329;28;20025;-77
2023/08/15 02:35:52;;;;;;;8.43;4.38;;;;;;;-148.88;100.00;-17125.47;5034524;28;20025;-76
2023/08/15 02:38:17;;;;;;;6.57;4.20;;;;;;;-148.88;100.00;-17125.47;5034300;28;20033;-77
2023/08/15 02:40:43;;;;;;;6.20;4.15;;;;;;;-148.88;100.00;-17125.47;5034410;28;20067;-77
2023/08/15 02:43:09;;;;;;;5.60;4.32;;;;;;;-148.88;100.00;-17125.47;5034353;28;20100;-77
2023/08/15 02:45:34;;;;;;;5.35;4.07;;;;;;;-148.88;100.00;-17125.47;5034323;28;20025;-77
2023/08/15 02:47:59;;;;;;;6.28;4.55;;;;;;;-148.88;100.00;-17125.47;5033050;28;20105;-77
2023/08/15 02:50:25;;;;;;;8.90;4.40;;;;;;;-148.88;100.00;-17125.47;5032935;28;20076;-77
2023/08/15 02:52:50;;;;;;;6.03;4.20;;;;;;;-148.88;100.00;-17125.47;5034351;28;20488;-77
2023/08/15 02:55:16;;;;;;;7.55;4.50;;;;;;;-148.88;100.00;-17125.47;5033040;28;20033;-77
2023/08/15 02:57:41;;;;;;;9.10;4.90;;;;;;;-148.88;100.00;-17125.47;5034113;28;20045;-77
2023/08/15 03:00:07;;;;;;;7.32;4.25;;;;;;;-148.88;100.00;-17125.47;5032808;28;20036;-76
2023/08/15 03:02:33;;;;;;;7.28;4.60;;;;;;;-148.88;100.00;-17125.47;5034320;28;20094;-77
2023/08/15 03:04:59;;;;;;;6.82;4.50;;;;;;;-148.88;100.00;-17125.47;5033994;28;20029;-77
2023/08/15 03:07:24;;;;;;;9.82;4.20;;;;;;;-148.88;100.00;-17125.47;5033944;28;20387;-76
2023/08/15 03:09:49;;;;;;;6.07;4.47;;;;;;;-148.88;100.00;-17125.47;5033828;28;20029;-77
2023/08/15 03:12:15;;;;;;;9.38;4.93;;;;;;;-148.88;100.00;-17125.47;5033890;28;20108;-77
2023/08/15 03:14:40;;;;;;;6.95;4.80;;;;;;;-148.88;100.00;-17125.47;5033103;28;20099;-77
2023/08/15 03:17:07;;;;;;;8.30;4.65;;;;;;;-148.88;100.00;-17125.47;5032389;28;20057;-77
2023/08/15 03:19:33;;;;;;;6.35;4.88;;;;;;;-148.88;100.00;-17125.47;5033974;28;20094;-77
2023/08/15 03:21:58;;;;;;;6.78;4.70;;;;;;;-148.88;100.00;-17125.47;5033952;28;20423;-77
2023/08/15 03:24:26;;;;;;;6.70;4.72;;;;;;;-148.88;100.00;-17125.47;5033727;28;20029;-76
2023/08/15 03:26:52;;;;;;;8.65;4.85;;;;;;;-148.88;100.00;-17125.47;5033663;28;20025;-76
2023/08/15 03:29:17;;;;;;;7.72;4.70;;;;;;;-148.88;100.00;-17125.47;5033724;28;20031;-77
2023/08/15 03:31:42;;;;;;;7.78;4.60;;;;;;;-148.88;100.00;-17125.47;5034215;28;20037;-77
2023/08/15 03:34:08;;;;;;;7.13;4.95;;;;;;;-148.88;100.00;-17125.47;5033930;28;20091;-76
2023/08/15 03:36:33;;;;;;;9.35;4.47;;;;;;;-148.88;100.00;-17125.47;5033451;28;20495;-76
2023/08/15 03:38:58;;;;;;;7.88;4.75;;;;;;;-148.88;100.00;-17125.47;5031837;28;20196;-76
2023/08/15 03:41:24;;;;;;;6.72;4.90;;;;;;;-148.88;100.00;-17125.47;5032068;28;20023;-76
2023/08/15 03:43:49;;;;;;;8.73;5.03;;;;;;;-148.88;100.00;-17125.47;5033290;28;20033;-77
2023/08/15 03:46:15;;;;;;;8.05;4.90;;;;;;;-148.88;100.00;-17125.47;5033484;28;20025;-77
2023/08/15 03:48:41;;;;;;;7.07;4.85;;;;;;;-148.88;100.00;-17125.47;5033164;28;20029;-77
2023/08/15 03:51:07;;;;;;;10.13;5.07;;;;;;;-148.88;100.00;-17125.47;5031895;28;20112;-77
2023/08/15 03:53:32;;;;;;;6.47;4.63;;;;;;;-148.88;100.00;-17125.47;5033224;28;20104;-77
2023/08/15 03:55:57;;;;;;;9.95;4.93;;;;;;;-148.88;100.00;-17125.47;5033090;28;20025;-77
2023/08/15 03:58:23;;;;;;;9.18;5.03;;;;;;;-148.88;100.00;-17125.47;5033102;28;20034;-77
2023/08/15 04:00:49;;;;;;;8.00;5.22;;;;;;;-148.88;100.00;-17125.47;5033122;28;20017;-77
2023/08/15 04:03:15;;;;;;;10.10;5.13;;;;;;;-148.88;100.00;-17125.47;5033143;28;20032;-77
2023/08/15 04:05:44;;;;;;;8.32;5.50;;;;;;;-148.88;100.00;-17125.47;5033310;28;20459;-77
2023/08/15 04:08:10;;;;;;;9.68;5.60;;;;;;;-148.88;100.00;-17125.47;5033009;28;20030;-76
2023/08/15 04:10:39;;;;;;;7.82;4.97;;;;;;;-148.88;100.00;-17125.47;5032995;28;20025;-77
2023/08/15 04:13:06;;;;;;;8.32;5.30;;;;;;;-148.88;100.00;-17125.47;5031676;28;20021;-77
2023/08/15 04:15:33;;;;;;;8.68;5.35;;;;;;;-148.88;100.00;-17125.47;5033195;28;20029;-77
2023/08/15 04:17:59;;;;;;;8.55;5.30;;;;;;;-148.88;100.00;-17125.47;5031566;28;20056;-76
2023/08/15 04:20:24;;;;;;;7.57;5.60;;;;;;;-148.88;100.00;-17125.47;5033087;28;20369;-77
2023/08/15 04:22:49;;;;;;;7.68;5.53;;;;;;;-148.88;100.00;-17125.47;5032906;28;20029;-77
2023/08/15 04:25:14;;;;;;;8.82;5.22;;;;;;;-148.88;100.00;-17125.47;5032882;28;20025;-76
2023/08/15 04:27:40;;;;;;;8.00;5.00;;;;;;;-148.88;100.00;-17125.47;5036882;28;20026;-77
2023/08/15 04:30:06;;;;;;;8.35;5.57;;;;;;;-148.88;100.00;-17125.47;5037795;28;20107;-77
2023/08/15 04:32:31;;;;;;;6.65;5.18;;;;;;;-148.88;100.00;-17125.47;5037625;28;20076;-76
2023/08/15 04:34:57;;;;;;;7.10;5.70;;;;;;;-148.88;100.00;-17125.47;5038070;28;20079;-77
2023/08/15 04:37:24;;;;;;;8.98;5.68;;;;;;;-148.88;100.00;-17125.47;5036148;28;20061;-76
2023/08/15 04:39:50;;;;;;;7.53;5.75;;;;;;;-148.88;100.00;-17125.47;5036374;28;20443;-77
2023/08/15 04:42:16;;;;;;;9.93;5.97;;;;;;;-148.88;100.00;-17125.47;5038135;28;20028;-77
2023/08/15 04:44:41;;;;;;;7.50;6.00;;;;;;;-148.88;100.00;-17125.47;5037025;28;20025;-77
2023/08/15 04:47:06;;;;;;;8.07;5.93;;;;;;;-148.88;100.00;-17125.47;5037648;28;20396;-77
2023/08/15 04:49:33;;;;;;;8.80;5.50;;;;;;;-148.88;100.00;-17125.47;5037300;28;20025;-77
2023/08/15 04:51:59;;;;;;;8.48;5.57;;;;;;;-148.88;100.00;-17125.47;5035597;28;20458;-77
2023/08/15 04:54:24;;;;;;;7.22;5.85;;;;;;;-148.88;100.00;-17125.47;5036578;28;20514;-77
2023/08/15 04:56:49;;;;;;;12.05;5.97;;;;;;;-148.88;100.00;-17125.47;5036863;28;20396;-77
2023/08/15 04:59:17;;;;;;;9.20;5.55;;;;;;;-148.88;100.00;-17125.47;5036785;28;20392;-77
2023/08/15 05:01:42;;;;;;;8.23;5.82;;;;;;;-148.88;100.00;-17125.47;5035577;28;20507;-77
2023/08/15 05:04:08;;;;;;;7.85;5.50;;;;;;;-148.88;100.00;-17125.47;5036532;28;20038;-77
2023/08/15 05:06:33;;;;;;;11.13;6.57;;;;;;;-148.88;100.00;-17125.47;5036281;28;20057;-77
2023/08/15 05:08:58;;;;;;;7.75;6.07;;;;;;;-148.88;100.00;-17125.47;5036820;28;20104;-77
2023/08/15 05:11:24;;;;;;;6.82;5.88;;;;;;;-148.88;100.00;-17125.47;5036168;28;20388;-77
2023/08/15 05:13:49;;;;;;;9.88;6.25;;;;;;;-148.88;100.00;-17125.47;5034820;28;20025;-77
2023/08/15 05:16:14;;;;;;;7.78;5.85;;;;;;;-148.88;100.00;-17125.47;5036294;28;20036;-77
2023/08/15 05:18:40;;;;;;;9.50;6.25;;;;;;;-148.88;100.00;-17125.47;5036075;28;20017;-77
2023/08/15 05:21:05;;;;;;;7.50;6.05;;;;;;;-148.88;100.00;-17125.47;5036293;28;20024;-77
2023/08/15 05:23:30;;;;;;;11.77;6.82;;;;;;;-148.88;100.00;-17125.47;5035961;28;20113;-77
2023/08/15 05:25:55;;;;;;;10.05;7.00;;;;;;;-148.88;100.00;-17125.47;5035992;28;20024;-77
2023/08/15 05:28:21;;;;;;;12.35;7.55;;;;;;;-148.88;100.00;-17125.47;5035964;28;20025;-77
2023/08/15 05:30:47;;;;;;;13.55;7.68;;;;;;;-148.88;100.00;-17125.47;5034806;28;20507;-77
2023/08/15 05:33:12;;;;;;;9.27;6.63;;;;;;;-148.88;100.00;-17125.47;5035716;28;20029;-76
2023/08/15 05:35:38;;;;;;;11.40;5.50;;;;;;;-148.88;100.00;-17125.47;5035563;28;20026;-76
2023/08/15 05:38:04;;;;;;;6.28;3.50;;;;;;;-148.88;100.00;-17125.47;5033325;28;20061;-76
2023/08/15 05:40:30;;;;;;;6.05;2.50;;;;;;;-148.88;100.00;-17125.47;5035577;28;20053;-76
2023/08/15 05:42:55;;;;;;;3.38;1.67;;;;;;;-148.88;100.00;-17125.47;5035807;28;20449;-77
2023/08/15 05:45:20;;;;;;;5.50;1.95;;;;;;;-148.88;100.00;-17125.47;5034420;28;20023;-76
2023/08/15 05:47:46;;;;;;;5.20;2.20;;;;;;;-148.88;100.00;-17125.47;5036075;28;20052;-77
2023/08/15 05:50:11;;;;;;;3.72;2.20;;;;;;;-148.88;100.00;-17125.47;5036214;28;20029;-76
2023/08/15 05:52:36;;;;;;;4.07;1.73;;;;;;;-148.88;100.00;-17125.47;5035474;28;20022;-77
2023/08/15 05:55:04;;;;;;;4.85;2.08;;;;;;;-148.88;100.00;-17125.47;5036497;28;20425;-77
2023/08/15 05:57:29;;;;;;;3.03;2.20;;;;;;;-148.88;100.00;-17125.47;5031030;28;20504;-76
2023/08/15 05:59:55;;;;;;;5.88;2.25;;;;;;;-148.88;100.00;-17125.47;5035744;28;20037;-77
2023/08/15 06:02:20;;;;;;;3.55;2.42;;;;;;;-148.88;100.00;-17125.47;5035374;28;20079;-77
2023/08/15 06:04:45;;;;;;;4.20;2.40;;;;;;;-148.88;100.00;-17125.47;5026422;28;20045;-77
2023/08/15 06:07:14;;;;;;;3.28;2.35;;;;;;;-148.88;100.00;-17125.47;5018024;28;20112;-77
2023/08/15 06:09:39;;;;;;;7.72;2.80;;;;;;;-148.88;100.00;-17125.47;5027876;28;20029;-77
2023/08/15 06:12:05;;;;;;;3.55;2.78;;;;;;;-148.88;100.00;-17125.47;5025349;28;20024;-77
2023/08/15 06:14:31;;;;;;;4.88;2.95;;;;;;;-148.88;100.00;-17125.47;5033449;28;20120;-77
2023/08/15 06:16:57;;;;;;;5.63;3.50;;;;;;;-148.88;100.00;-17125.47;5024004;28;20022;-76
2023/08/15 06:19:22;;;;;;;4.60;3.40;;;;;;;-148.88;100.00;-17125.47;5018291;28;20176;-76
2023/08/15 06:21:48;;;;;;;5.65;3.72;;;;;;;-148.88;100.00;-17125.47;5016127;28;20111;-77
2023/08/15 06:24:13;;;;;;;4.65;3.58;;;;;;;-148.88;100.00;-17125.47;5014771;28;20029;-76
2023/08/15 06:26:39;;;;;;;5.30;3.75;;;;;;;-148.88;100.00;-17125.47;5014720;28;20044;-76
2023/08/15 06:29:06;;;;;;;5.57;3.75;;;;;;;-148.88;100.00;-17125.47;5014607;28;20033;-76
2023/08/15 06:31:35;;;;;;;5.40;3.88;;;;;;;-148.88;100.00;-17125.47;5014762;28;20030;-76
2023/08/15 06:34:02;;;;;;;6.43;4.30;;;;;;;-148.88;100.00;-17125.47;5013502;28;20026;-76
2023/08/15 06:36:28;;;;;;;6.65;4.95;;;;;;;-148.88;100.00;-17125.47;5013787;28;20056;-77
2023/08/15 06:38:53;;;;;;;8.82;5.72;;;;;;;-148.88;100.00;-17125.47;5015166;28;20066;-77
2023/08/15 06:41:19;;;;;;;7.97;5.57;;;;;;;-148.88;100.00;-17125.47;5013991;28;20096;-77
2023/08/15 06:43:44;;;;;;;7.40;5.80;;;;;;;-148.88;100.00;-17125.47;5017305;28;20106;-77
2023/08/15 06:46:14;;;;;;;8.10;5.40;;;;;;;-148.88;100.00;-17125.47;5017769;28;20109;-78
2023/08/15 06:48:39;;;;;;;8.07;5.45;;;;;;;-148.88;100.00;-17125.47;5021037;28;20080;-77
2023/08/15 06:51:05;;;;;;;7.95;5.97;;;;;;;-148.88;100.00;-17125.47;5019871;28;20022;-77
2023/08/15 06:53:31;;;;;;;7.60;5.68;;;;;;;-148.88;100.00;-17125.47;5020410;28;20101;-77
2023/08/15 06:55:56;;;;;;;7.40;6.00;;;;;;;-148.88;100.00;-17125.47;5021638;28;20022;-78
2023/08/15 06:58:22;;;;;;;7.30;5.80;;;;;;;-148.88;100.00;-17125.47;5020650;28;20029;-78
2023/08/15 07:00:48;;;;;;;7.88;5.68;;;;;;;-148.88;100.00;-17125.47;5020473;28;20018;-77
2023/08/15 07:03:15;;;;;;;8.57;6.30;;;;;;;-148.88;100.00;-17125.47;5020344;28;20479;-78
2023/08/15 07:05:41;;;;;;;8.60;6.22;;;;;;;-148.88;100.00;-17125.47;5020191;28;20022;-77
2023/08/15 07:08:07;;;;;;;7.20;6.05;;;;;;;-148.88;100.00;-17125.47;5019553;28;20455;-77
2023/08/15 07:10:34;;;;;;;8.27;6.35;;;;;;;-148.88;100.00;-17125.47;5021631;28;20036;-78
2023/08/15 07:12:59;;;;;;;8.00;7.00;;;;;;;-148.88;100.00;-17125.47;5022654;28;20080;-78
2023/08/15 07:15:25;;;;;;;10.90;7.30;;;;;;;-148.88;100.00;-17125.47;5019520;28;20022;-77
2023/08/15 07:17:50;;;;;;;12.45;6.85;;;;;;;-148.88;100.00;-17125.47;5015484;28;20029;-77
2023/08/15 07:20:16;;;;;;;10.00;7.45;;;;;;;-148.88;100.00;-17125.47;5015150;28;20018;-77
2023/08/15 07:22:41;;;;;;;9.18;7.43;;;;;;;-148.88;100.00;-17125.47;5014833;28;20449;-77
2023/08/15 07:25:07;;;;;;;9.75;7.40;;;;;;;-148.88;100.00;-17125.47;5014754;28;20030;-77
2023/08/15 07:27:32;;;;;;;9.38;6.75;;;;;;;-148.88;100.00;-17125.47;5013555;28;20112;-77
2023/08/15 07:29:58;;;;;;;8.20;6.57;;;;;;;-148.88;100.00;-17125.47;5013483;28;20026;-77
2023/08/15 07:32:23;;;;;;;8.27;6.60;;;;;;;-148.88;100.00;-17125.47;5015126;28;20025;-77
2023/08/15 07:34:49;;;;;;;8.75;6.88;;;;;;;-148.88;100.00;-17125.47;5013589;28;20038;-77
2023/08/15 07:37:15;;;;;;;9.52;6.65;;;;;;;-148.88;100.00;-17125.47;5014595;28;20056;-77
2023/08/15 07:39:40;;;;;;;10.80;7.15;;;;;;;-148.88;100.00;-17125.47;5014536;28;20029;-77
2023/08/15 07:42:06;;;;;;;7.55;6.65;;;;;;;-148.88;100.00;-17125.47;5014663;28;20552;-77
2023/08/15 07:44:31;;;;;;;10.25;7.95;;;;;;;-148.88;100.00;-17125.47;5013178;28;20042;-77
2023/08/15 07:46:57;;;;;;;9.85;7.65;;;;;;;-148.88;100.00;-17125.47;5012988;28;20029;-77
2023/08/15 07:49:22;;;;;;;9.43;8.43;;;;;;;-148.88;100.00;-17125.47;5029839;28;20025;-77
2023/08/15 07:51:47;;;;;;;9.45;6.85;;;;;;;-148.88;100.00;-17125.47;5032945;28;20070;-77
2023/08/15 07:54:13;;;;;;;11.93;7.97;;;;;;;-148.88;100.00;-17125.47;5034152;28;20052;-77
2023/08/15 07:56:38;;;;;;;13.30;8.30;;;;;;;-148.88;100.00;-17125.47;5033572;28;20028;-77
2023/08/15 07:59:04;;;;;;;11.40;8.65;;;;;;;-148.88;100.00;-17125.47;5033538;28;20037;-77
2023/08/15 08:01:29;;;;;;;11.75;8.02;;;;;;;-148.88;100.00;-17125.47;5033549;28;20021;-77
2023/08/15 08:03:55;;;;;;;11.95;7.80;;;;;;;-148.88;100.00;-17125.47;5034835;28;20480;-77
2023/08/15 08:06:21;;;;;;;10.38;7.85;;;;;;;-148.88;100.00;-17125.47;5035977;28;20029;-77
2023/08/15 08:08:47;;;;;;;12.18;8.57;;;;;;;-148.88;100.00;-17125.47;5036232;28;20075;-77
2023/08/15 08:11:13;;;;;;;10.98;7.53;;;;;;;-148.88;100.00;-17125.47;5036300;28;20045;-77
2023/08/15 08:13:39;;;;;;;11.98;8.48;;;;;;;-148.88;100.00;-17125.47;5036372;28;20095;-77
2023/08/15 08:16:04;;;;;;;15.18;9.52;;;;;;;-148.88;100.00;-17125.47;5036116;28;20017;-77
2023/08/15 08:18:30;;;;;;;15.20;8.88;;;;;;;-148.88;100.00;-17125.47;5034645;28;20084;-77
2023/08/15 08:20:55;;;;;;;13.88;9.88;;;;;;;-148.88;100.00;-17125.47;5033474;28;20018;-77
2023/08/15 08:23:21;;;;;;;16.70;10.43;;;;;;;-148.88;100.00;-17125.47;5035703;28;20108;-77
2023/08/15 08:25:46;;;;;;;12.38;9.77;;;;;;;-148.88;100.00;-17125.47;5034763;28;20032;-77
2023/08/15 08:28:13;;;;;;;14.50;10.10;;;;;;;-148.88;100.00;-17125.47;5035491;28;20074;-77
2023/08/15 08:30:38;;;;;;;15.48;10.50;;;;;;;-148.88;100.00;-17125.47;5033951;28;20064;-77
2023/08/15 08:33:04;;;;;;;16.63;10.80;;;;;;;-148.88;100.00;-17125.47;5035265;28;20056;-77
2023/08/15 08:35:29;;;;;;;15.93;11.70;;;;;;;-148.88;100.00;-17125.47;5035973;28;20024;-77
2023/08/15 08:37:55;;;;;;;17.75;11.95;;;;;;;-148.88;100.00;-17125.47;5035001;28;20033;-77
2023/08/15 08:40:21;;;;;;;15.02;10.50;;;;;;;-148.88;100.00;-17125.47;5034532;28;20027;-77
2023/08/15 08:42:46;;;;;;;15.55;11.15;;;;;;;-148.88;100.00;-17125.47;5033831;28;20021;-77
2023/08/15 08:45:12;;;;;;;16.42;11.30;;;;;;;-148.88;100.00;-17125.47;5033809;28;20033;-78
2023/08/15 08:47:40;;;;;;;17.45;12.70;;;;;;;-148.88;100.00;-17125.47;5031246;28;20490;-77
2023/08/15 08:50:09;;;;;;;18.30;13.93;;;;;;;-148.88;100.00;-17125.47;5031099;28;20029;-77
2023/08/15 08:52:37;;;;;;;18.38;13.55;;;;;;;-148.88;100.00;-17125.47;5032378;28;20067;-77
2023/08/15 08:55:04;;;;;;;21.40;13.30;;;;;;;-148.88;100.00;-17125.47;5031352;28;20025;-77
2023/08/15 08:57:32;;;;;;;21.88;13.82;;;;;;;-148.88;100.00;-17125.47;5031066;28;20472;-77
2023/08/15 09:00:00;;;;;;;19.20;14.82;;;;;;;-148.88;100.00;-17125.47;5031113;28;20017;-78
2023/08/15 09:02:26;;;;;;;17.38;14.65;;;;;;;-148.88;100.00;-17125.47;5032316;28;20029;-77
2023/08/15 09:04:54;;;;;;;23.77;15.85;;;;;;;-148.88;100.00;-17125.47;5032608;28;20523;-77
2023/08/15 09:07:20;;;;;;;20.65;15.02;;;;;;;-148.88;100.00;-17125.47;5031169;28;20036;-77
2023/08/15 09:09:45;;;;;;;19.73;15.20;;;;;;;-148.88;100.00;-17125.47;5032221;28;20112;-77
2023/08/15 09:12:31;;;;;;;19.55;15.95;;;;;;;-148.88;100.00;-17125.47;5030944;28;20063;-77
2023/08/15 09:14:56;;;;;;;19.33;14.70;;;;;;;-148.88;100.00;-17125.47;5034709;28;20031;-77
2023/08/15 09:17:26;;;;;;;20.50;15.07;;;;;;;-148.88;100.00;-17125.47;5034958;28;20111;-77
2023/08/15 09:19:52;;;;;;;19.30;15.40;;;;;;;-148.88;100.00;-17125.47;5034612;28;20443;-77
2023/08/15 09:22:22;;;;;;;20.17;14.43;;;;;;;-148.88;100.00;-17125.47;5035829;28;20476;-77
2023/08/15 09:24:47;;;;;;;19.70;15.60;;;;;;;-148.88;100.00;-17125.47;5036526;28;20021;-77
2023/08/15 09:27:12;;;;;;;19.73;15.88;;;;;;;-148.88;100.00;-17125.47;5035763;28;20052;-77
2023/08/15 09:29:38;;;;;;;20.75;15.63;;;;;;;-148.88;100.00;-17125.47;5034376;28;20029;-77
2023/08/15 09:32:03;;;;;;;20.02;15.25;;;;;;;-148.88;100.00;-17125.47;5035836;28;20076;-77
2023/08/15 09:34:29;;;;;;;19.65;14.50;;;;;;;-148.88;100.00;-17125.47;5036171;28;20026;-77
2023/08/15 09:36:54;;;;;;;17.48;13.93;;;;;;;-148.88;100.00;-17125.47;5036464;28;20095;-78
2023/08/15 09:39:20;;;;;;;18.02;14.70;;;;;;;-148.88;100.00;-17125.47;5035589;28;20084;-77
2023/08/15 09:41:48;;;;;;;19.65;13.57;;;;;;;-148.88;100.00;-17125.47;5035968;28;20071;-77
2023/08/15 09:44:28;;;;;;;16.95;12.98;;;;;;;-148.88;100.00;-17125.47;5035618;28;20044;-77
2023/08/15 09:46:54;;;;;;;16.35;13.05;;;;;;;-148.88;100.00;-17125.47;5035669;28;20117;-77
2023/08/15 09:49:20;;;;;;;17.45;13.23;;;;;;;-148.88;100.00;-17125.47;5036122;28;20021;-77
2023/08/15 09:51:47;;;;;;;16.55;13.38;;;;;;;-148.88;100.00;-17125.47;5035589;28;20018;-77
2023/08/15 09:54:16;;;;;;;16.50;11.70;;;;;;;-148.88;100.00;-17125.47;5035578;28;20025;-77
2023/08/15 09:56:42;;;;;;;14.68;12.68;;;;;;;-148.88;100.00;-17125.47;5035218;28;20021;-77
2023/08/15 09:59:08;;;;;;;17.88;12.93;;;;;;;-148.88;100.00;-17125.47;5035473;28;20026;-77
2023/08/15 10:01:37;;;;;;;18.15;14.18;;;;;;;-148.88;100.00;-17125.47;5035392;28;20076;-77
2023/08/15 10:04:07;;;;;;;17.83;13.95;;;;;;;-148.88;100.00;-17125.47;5033862;28;20099;-77
2023/08/15 10:06:33;;;;;;;19.27;13.13;;;;;;;-148.88;100.00;-17125.47;5034106;28;20492;-77
2023/08/15 10:09:00;;;;;;;16.58;13.00;;;;;;;-148.88;100.00;-17125.47;5035039;28;20460;-77
2023/08/15 10:11:30;;;;;;;17.90;13.30;;;;;;;-148.88;100.00;-17125.47;5035100;28;20099;-77
2023/08/15 10:14:00;;;;;;;17.20;13.27;;;;;;;-148.88;100.00;-17125.47;5033905;28;20028;-77
2023/08/15 10:16:26;;;;;;;17.65;13.05;;;;;;;-148.88;100.00;-17125.47;5035204;28;20036;-77
2023/08/15 10:18:57;;;;;;;18.10;12.93;;;;;;;-148.88;100.00;-17125.47;5034864;28;20036;-77
2023/08/15 10:21:29;;;;;;;17.27;11.57;;;;;;;-148.88;100.00;-17125.47;5034785;28;20100;-77
2023/08/15 10:23:55;;;;;;;14.65;10.80;;;;;;;-148.88;100.00;-17125.47;5034829;28;20021;-77
2023/08/15 10:26:21;;;;;;;15.85;10.48;;;;;;;-148.88;100.00;-17125.47;5034192;28;20404;-77
2023/08/15 10:28:47;;;;;;;14.80;11.57;;;;;;;-148.88;100.00;-17125.47;5034608;28;20022;-77
2023/08/15 10:31:13;;;;;;;14.25;10.38;;;;;;;-148.88;98.27;-17125.47;5034627;28;20021;-77
2023/08/15 10:33:38;;;;;;;14.25;11.40;;;;;;;-148.88;99.13;-17125.47;5034574;28;20029;-77
2023/08/15 10:36:03;;;;;;;14.38;12.73;;;;;;;-148.88;98.07;-17125.47;5033384;28;20017;-77
2023/08/15 10:38:35;;;;;;;15.68;11.73;;;;;;;-148.88;98.84;-17125.47;5034263;28;20040;-77
2023/08/15 10:41:13;;;;;;;12.85;10.85;;;;;;;-148.88;96.63;-17125.47;5034745;28;20026;-77
2023/08/15 10:43:39;;;;;;;17.13;11.90;;;;;;;-148.88;95.60;-17125.47;5034602;28;20542;-77
2023/08/15 10:46:06;;;;;;;16.13;11.57;;;;;;;-148.88;98.07;-17125.47;5033117;28;20034;-77
2023/08/15 10:48:48;;;;;;;15.15;11.20;;;;;;;-148.88;98.17;-17125.47;5034350;28;20025;-77
2023/08/15 10:51:30;;;;;;;13.88;11.10;;;;;;;-148.88;95.91;-17125.47;5033265;28;20083;-77
2023/08/15 10:54:02;;;;;;;16.75;11.23;;;;;;;-148.88;95.57;-17125.47;5034317;28;20052;-77